Terminal Aerodrome Forecast
Issued by NWS Sterling, VA

Current Version | Previous Version | Text Only | Print | Product List | Glossary On
Versions: 1 2 3 4 5 6 7 8 9 10 11 12 13 14 15 16
000
FTUS41 KLWX 250537
TAFMRB
TAF
KMRB 250537Z 2506/2606 VRB04KT P6SM BKN080
     FM251300 28008KT P6SM SCT040
     FM260200 VRB04KT P6SM SCT030 OVC120=

USA.gov is the U.S. government's official web portal to all federal, state and local government web resources and services.